sensor_id;sensor_type;location;lat;lon;timestamp;temperature;humidity
65072;DHT22;51663;52.310;17.016;2023-07-09T00:00:34;35.00;32.30
65072;DHT22;51663;52.310;17.016;2023-07-09T00:03:56;35.30;32.00
65072;DHT22;51663;52.310;17.016;2023-07-09T00:07:02;34.50;33.30
65072;DHT22;51663;52.310;17.016;2023-07-09T00:10:17;35.10;32.60
65072;DHT22;51663;52.310;17.016;2023-07-09T00:13:20;35.50;32.00
65072;DHT22;51663;52.310;17.016;2023-07-09T00:16:26;34.90;32.70
65072;DHT22;51663;52.310;17.016;2023-07-09T00:19:28;33.90;34.40
65072;DHT22;51663;52.310;17.016;2023-07-09T00:22:31;34.60;33.40
65072;DHT22;51663;52.310;17.016;2023-07-09T00:25:33;34.90;32.80
65072;DHT22;51663;52.310;17.016;2023-07-09T00:28:37;34.60;32.90
65072;DHT22;51663;52.310;17.016;2023-07-09T00:31:40;34.40;33.40
65072;DHT22;51663;52.310;17.016;2023-07-09T00:34:44;33.90;34.00
65072;DHT22;51663;52.310;17.016;2023-07-09T00:37:50;34.10;34.00
65072;DHT22;51663;52.310;17.016;2023-07-09T00:47:25;34.60;33.50
65072;DHT22;51663;52.310;17.016;2023-07-09T00:50:40;35.10;32.70
65072;DHT22;51663;52.310;17.016;2023-07-09T00:53:45;34.90;32.50
65072;DHT22;51663;52.310;17.016;2023-07-09T00:56:50;35.40;32.30
65072;DHT22;51663;52.310;17.016;2023-07-09T00:59:59;35.50;31.80
65072;DHT22;51663;52.310;17.016;2023-07-09T01:03:15;35.00;33.00
65072;DHT22;51663;52.310;17.016;2023-07-09T01:06:25;34.90;32.80
65072;DHT22;51663;52.310;17.016;2023-07-09T01:09:32;35.40;32.30
65072;DHT22;51663;52.310;17.016;2023-07-09T01:12:37;35.60;32.70
65072;DHT22;51663;52.310;17.016;2023-07-09T01:15:40;35.40;31.90
65072;DHT22;51663;52.310;17.016;2023-07-09T01:18:43;35.60;31.80
65072;DHT22;51663;52.310;17.016;2023-07-09T01:21:45;35.70;31.70
65072;DHT22;51663;52.310;17.016;2023-07-09T01:25:03;35.70;31.40
65072;DHT22;51663;52.310;17.016;2023-07-09T01:28:07;35.70;31.50
65072;DHT22;51663;52.310;17.016;2023-07-09T01:31:11;35.70;31.70
65072;DHT22;51663;52.310;17.016;2023-07-09T01:34:14;35.80;31.70
65072;DHT22;51663;52.310;17.016;2023-07-09T01:37:19;35.70;31.40
65072;DHT22;51663;52.310;17.016;2023-07-09T01:40:25;35.70;31.50
65072;DHT22;51663;52.310;17.016;2023-07-09T01:43:35;35.70;31.40
65072;DHT22;51663;52.310;17.016;2023-07-09T01:46:36;35.70;31.40
65072;DHT22;51663;52.310;17.016;2023-07-09T01:49:39;35.80;31.20
65072;DHT22;51663;52.310;17.016;2023-07-09T01:52:43;35.60;31.50
65072;DHT22;51663;52.310;17.016;2023-07-09T01:55:46;35.50;31.60
65072;DHT22;51663;52.310;17.016;2023-07-09T01:58:48;35.60;31.20
65072;DHT22;51663;52.310;17.016;2023-07-09T02:01:50;35.50;31.00
65072;DHT22;51663;52.310;17.016;2023-07-09T02:04:56;35.50;31.00
65072;DHT22;51663;52.310;17.016;2023-07-09T02:07:59;35.60;31.50
65072;DHT22;51663;52.310;17.016;2023-07-09T02:11:01;35.20;31.70
65072;DHT22;51663;52.310;17.016;2023-07-09T02:14:03;35.20;31.80
65072;DHT22;51663;52.310;17.016;2023-07-09T02:17:06;35.20;31.60
65072;DHT22;51663;52.310;17.016;2023-07-09T02:20:10;35.20;31.60
65072;DHT22;51663;52.310;17.016;2023-07-09T02:23:13;35.30;31.20
65072;DHT22;51663;52.310;17.016;2023-07-09T02:26:15;35.30;31.70
65072;DHT22;51663;52.310;17.016;2023-07-09T02:29:17;35.30;31.20
65072;DHT22;51663;52.310;17.016;2023-07-09T02:32:23;35.30;31.20
65072;DHT22;51663;52.310;17.016;2023-07-09T02:35:25;35.30;31.10
65072;DHT22;51663;52.310;17.016;2023-07-09T02:38:27;35.20;31.60
65072;DHT22;51663;52.310;17.016;2023-07-09T02:41:30;35.10;31.40
65072;DHT22;51663;52.310;17.016;2023-07-09T02:44:32;35.10;31.90
65072;DHT22;51663;52.310;17.016;2023-07-09T02:47:34;35.10;32.60
65072;DHT22;51663;52.310;17.016;2023-07-09T02:50:36;35.10;32.00
65072;DHT22;51663;52.310;17.016;2023-07-09T02:53:38;35.00;32.00
65072;DHT22;51663;52.310;17.016;2023-07-09T02:56:41;34.90;32.20
65072;DHT22;51663;52.310;17.016;2023-07-09T02:59:43;34.90;32.00
65072;DHT22;51663;52.310;17.016;2023-07-09T03:02:45;34.90;31.80
65072;DHT22;51663;52.310;17.016;2023-07-09T03:05:47;34.70;32.30
65072;DHT22;51663;52.310;17.016;2023-07-09T03:08:51;34.80;32.50
65072;DHT22;51663;52.310;17.016;2023-07-09T03:11:53;34.90;32.50
65072;DHT22;51663;52.310;17.016;2023-07-09T03:14:56;35.00;32.40
65072;DHT22;51663;52.310;17.016;2023-07-09T03:17:58;35.20;32.20
65072;DHT22;51663;52.310;17.016;2023-07-09T03:21:01;35.70;31.70
65072;DHT22;51663;52.310;17.016;2023-07-09T03:24:03;36.40;30.80
65072;DHT22;51663;52.310;17.016;2023-07-09T03:27:06;37.00;30.00
65072;DHT22;51663;52.310;17.016;2023-07-09T03:30:08;36.50;29.80
65072;DHT22;51663;52.310;17.016;2023-07-09T03:33:13;34.60;32.20
65072;DHT22;51663;52.310;17.016;2023-07-09T03:36:15;33.70;33.60
65072;DHT22;51663;52.310;17.016;2023-07-09T03:39:18;33.50;34.30
65072;DHT22;51663;52.310;17.016;2023-07-09T03:42:20;33.30;35.60
65072;DHT22;51663;52.310;17.016;2023-07-09T03:45:23;33.00;35.00
65072;DHT22;51663;52.310;17.016;2023-07-09T03:48:25;33.40;34.70
65072;DHT22;51663;52.310;17.016;2023-07-09T03:51:27;33.50;34.80
65072;DHT22;51663;52.310;17.016;2023-07-09T03:54:30;33.60;34.30
65072;DHT22;51663;52.310;17.016;2023-07-09T03:57:32;33.90;34.00
65072;DHT22;51663;52.310;17.016;2023-07-09T04:00:35;34.50;33.30
65072;DHT22;51663;52.310;17.016;2023-07-09T04:03:37;34.90;32.90
65072;DHT22;51663;52.310;17.016;2023-07-09T04:06:39;34.30;33.60
65072;DHT22;51663;52.310;17.016;2023-07-09T04:09:42;34.90;32.90
65072;DHT22;51663;52.310;17.016;2023-07-09T04:12:44;35.60;32.10
65072;DHT22;51663;52.310;17.016;2023-07-09T04:15:46;35.70;31.40
65072;DHT22;51663;52.310;17.016;2023-07-09T04:18:49;35.80;31.50
65072;DHT22;51663;52.310;17.016;2023-07-09T04:21:51;36.00;31.10
65072;DHT22;51663;52.310;17.016;2023-07-09T04:24:53;36.10;30.90
65072;DHT22;51663;52.310;17.016;2023-07-09T04:27:55;36.50;30.50
65072;DHT22;51663;52.310;17.016;2023-07-09T04:30:57;36.70;30.30
65072;DHT22;51663;52.310;17.016;2023-07-09T04:34:00;36.70;30.30
65072;DHT22;51663;52.310;17.016;2023-07-09T04:37:02;36.60;30.10
65072;DHT22;51663;52.310;17.016;2023-07-09T04:40:05;36.80;30.50
65072;DHT22;51663;52.310;17.016;2023-07-09T04:43:08;37.20;30.20
65072;DHT22;51663;52.310;17.016;2023-07-09T04:46:11;37.10;30.00
65072;DHT22;51663;52.310;17.016;2023-07-09T04:49:13;38.10;29.60
65072;DHT22;51663;52.310;17.016;2023-07-09T04:52:15;38.00;29.20
65072;DHT22;51663;52.310;17.016;2023-07-09T04:55:18;37.80;29.20
65072;DHT22;51663;52.310;17.016;2023-07-09T04:58:21;37.90;29.10
65072;DHT22;51663;52.310;17.016;2023-07-09T05:01:23;37.80;29.20
65072;DHT22;51663;52.310;17.016;2023-07-09T05:04:26;38.00;29.10
65072;DHT22;51663;52.310;17.016;2023-07-09T05:07:28;38.80;28.70
65072;DHT22;51663;52.310;17.016;2023-07-09T05:10:30;39.70;28.10
65072;DHT22;51663;52.310;17.016;2023-07-09T05:13:32;40.20;28.00
65072;DHT22;51663;52.310;17.016;2023-07-09T05:16:35;41.20;26.70
65072;DHT22;51663;52.310;17.016;2023-07-09T05:19:38;42.20;26.10
65072;DHT22;51663;52.310;17.016;2023-07-09T05:22:41;42.90;25.40
65072;DHT22;51663;52.310;17.016;2023-07-09T05:25:43;42.50;25.00
65072;DHT22;51663;52.310;17.016;2023-07-09T05:28:45;42.50;25.50
65072;DHT22;51663;52.310;17.016;2023-07-09T05:31:47;42.40;25.80
65072;DHT22;51663;52.310;17.016;2023-07-09T05:34:50;42.30;25.60
65072;DHT22;51663;52.310;17.016;2023-07-09T05:37:55;42.40;25.50
65072;DHT22;51663;52.310;17.016;2023-07-09T05:41:00;43.00;25.30
65072;DHT22;51663;52.310;17.016;2023-07-09T05:44:03;42.80;24.90
65072;DHT22;51663;52.310;17.016;2023-07-09T05:47:05;43.10;25.30
65072;DHT22;51663;52.310;17.016;2023-07-09T05:50:08;43.60;24.50
65072;DHT22;51663;52.310;17.016;2023-07-09T05:53:10;43.70;24.30
65072;DHT22;51663;52.310;17.016;2023-07-09T05:56:13;43.90;24.30
65072;DHT22;51663;52.310;17.016;2023-07-09T05:59:15;43.80;24.00
65072;DHT22;51663;52.310;17.016;2023-07-09T06:02:19;43.00;24.50
65072;DHT22;51663;52.310;17.016;2023-07-09T06:05:22;43.00;24.70
65072;DHT22;51663;52.310;17.016;2023-07-09T06:08:24;42.80;24.40
65072;DHT22;51663;52.310;17.016;2023-07-09T06:11:28;43.00;24.60
65072;DHT22;51663;52.310;17.016;2023-07-09T06:14:30;42.80;24.50
65072;DHT22;51663;52.310;17.016;2023-07-09T06:17:33;43.00;24.40
65072;DHT22;51663;52.310;17.016;2023-07-09T06:20:36;43.10;24.30
65072;DHT22;51663;52.310;17.016;2023-07-09T06:23:38;43.20;23.90
65072;DHT22;51663;52.310;17.016;2023-07-09T06:26:41;43.40;23.80
65072;DHT22;51663;52.310;17.016;2023-07-09T06:29:43;43.30;23.90
65072;DHT22;51663;52.310;17.016;2023-07-09T06:32:45;43.60;23.90
65072;DHT22;51663;52.310;17.016;2023-07-09T06:35:49;43.90;23.70
65072;DHT22;51663;52.310;17.016;2023-07-09T06:38:51;44.30;23.90
65072;DHT22;51663;52.310;17.016;2023-07-09T06:41:54;44.70;23.70
65072;DHT22;51663;52.310;17.016;2023-07-09T06:44:56;44.30;23.50
65072;DHT22;51663;52.310;17.016;2023-07-09T06:48:00;44.70;23.20
65072;DHT22;51663;52.310;17.016;2023-07-09T06:51:02;44.80;23.30
65072;DHT22;51663;52.310;17.016;2023-07-09T06:54:05;45.30;22.90
65072;DHT22;51663;52.310;17.016;2023-07-09T06:57:08;45.70;22.80
65072;DHT22;51663;52.310;17.016;2023-07-09T07:00:11;45.50;22.90
65072;DHT22;51663;52.310;17.016;2023-07-09T07:03:13;46.10;22.70
65072;DHT22;51663;52.310;17.016;2023-07-09T07:06:15;46.10;22.30
65072;DHT22;51663;52.310;17.016;2023-07-09T07:09:18;45.80;22.40
65072;DHT22;51663;52.310;17.016;2023-07-09T07:12:41;45.60;22.30
65072;DHT22;51663;52.310;17.016;2023-07-09T07:15:48;45.30;22.30
65072;DHT22;51663;52.310;17.016;2023-07-09T07:18:51;45.20;22.90
65072;DHT22;51663;52.310;17.016;2023-07-09T07:21:53;45.50;23.00
65072;DHT22;51663;52.310;17.016;2023-07-09T07:24:56;46.00;22.40
65072;DHT22;51663;52.310;17.016;2023-07-09T07:27:58;45.80;22.40
65072;DHT22;51663;52.310;17.016;2023-07-09T07:31:02;45.50;21.90
65072;DHT22;51663;52.310;17.016;2023-07-09T07:34:04;45.30;22.00
65072;DHT22;51663;52.310;17.016;2023-07-09T07:37:07;45.20;22.20
65072;DHT22;51663;52.310;17.016;2023-07-09T07:40:09;45.20;21.90
65072;DHT22;51663;52.310;17.016;2023-07-09T07:43:12;44.80;22.00
65072;DHT22;51663;52.310;17.016;2023-07-09T07:46:14;44.90;22.00
65072;DHT22;51663;52.310;17.016;2023-07-09T07:49:16;45.10;22.40
65072;DHT22;51663;52.310;17.016;2023-07-09T07:52:18;44.60;22.80
65072;DHT22;51663;52.310;17.016;2023-07-09T07:55:21;44.70;22.40
65072;DHT22;51663;52.310;17.016;2023-07-09T07:58:30;44.90;22.30
65072;DHT22;51663;52.310;17.016;2023-07-09T08:01:32;45.20;22.10
65072;DHT22;51663;52.310;17.016;2023-07-09T08:04:37;45.10;21.90
65072;DHT22;51663;52.310;17.016;2023-07-09T08:07:40;44.40;22.30
65072;DHT22;51663;52.310;17.016;2023-07-09T08:10:42;44.60;22.20
65072;DHT22;51663;52.310;17.016;2023-07-09T08:13:44;44.50;22.30
65072;DHT22;51663;52.310;17.016;2023-07-09T08:16:47;44.90;22.50
65072;DHT22;51663;52.310;17.016;2023-07-09T08:19:52;44.70;22.40
65072;DHT22;51663;52.310;17.016;2023-07-09T08:22:57;44.80;22.70
65072;DHT22;51663;52.310;17.016;2023-07-09T08:26:01;44.90;22.50
65072;DHT22;51663;52.310;17.016;2023-07-09T08:29:05;44.90;22.50
65072;DHT22;51663;52.310;17.016;2023-07-09T08:32:09;44.90;22.50
65072;DHT22;51663;52.310;17.016;2023-07-09T08:35:11;44.90;23.10
65072;DHT22;51663;52.310;17.016;2023-07-09T08:38:17;44.10;23.20
65072;DHT22;51663;52.310;17.016;2023-07-09T08:41:43;43.00;23.90
65072;DHT22;51663;52.310;17.016;2023-07-09T08:48:01;42.80;24.10
65072;DHT22;51663;52.310;17.016;2023-07-09T08:51:38;42.80;24.00
65072;DHT22;51663;52.310;17.016;2023-07-09T08:54:41;42.60;24.00
65072;DHT22;51663;52.310;17.016;2023-07-09T08:57:47;42.70;23.70
65072;DHT22;51663;52.310;17.016;2023-07-09T09:00:56;42.20;23.90
65072;DHT22;51663;52.310;17.016;2023-07-09T09:04:10;42.30;24.40
65072;DHT22;51663;52.310;17.016;2023-07-09T09:10:48;40.80;25.40
65072;DHT22;51663;52.310;17.016;2023-07-09T09:13:56;39.60;25.60
65072;DHT22;51663;52.310;17.016;2023-07-09T09:17:02;38.90;26.10
65072;DHT22;51663;52.310;17.016;2023-07-09T09:23:15;40.00;26.00
65072;DHT22;51663;52.310;17.016;2023-07-09T09:26:27;40.40;25.60
65072;DHT22;51663;52.310;17.016;2023-07-09T09:29:31;39.80;25.10
65072;DHT22;51663;52.310;17.016;2023-07-09T09:32:43;39.60;24.80
65072;DHT22;51663;52.310;17.016;2023-07-09T09:35:46;40.00;25.20
65072;DHT22;51663;52.310;17.016;2023-07-09T09:38:52;40.00;24.50
65072;DHT22;51663;52.310;17.016;2023-07-09T09:41:56;39.50;24.30
65072;DHT22;51663;52.310;17.016;2023-07-09T09:44:58;39.20;24.20
65072;DHT22;51663;52.310;17.016;2023-07-09T09:48:05;39.40;24.40
65072;DHT22;51663;52.310;17.016;2023-07-09T09:51:12;40.00;24.50
65072;DHT22;51663;52.310;17.016;2023-07-09T09:54:21;39.90;25.10
65072;DHT22;51663;52.310;17.016;2023-07-09T09:57:24;39.30;24.80
65072;DHT22;51663;52.310;17.016;2023-07-09T10:00:29;39.70;24.80
65072;DHT22;51663;52.310;17.016;2023-07-09T10:03:35;39.50;24.40
65072;DHT22;51663;52.310;17.016;2023-07-09T10:06:42;39.70;24.60
65072;DHT22;51663;52.310;17.016;2023-07-09T10:12:51;40.50;23.80
65072;DHT22;51663;52.310;17.016;2023-07-09T10:19:27;39.90;23.60
65072;DHT22;51663;52.310;17.016;2023-07-09T10:26:01;40.20;23.70
65072;DHT22;51663;52.310;17.016;2023-07-09T10:36:12;38.60;25.10
65072;DHT22;51663;52.310;17.016;2023-07-09T10:39:33;39.10;25.00
65072;DHT22;51663;52.310;17.016;2023-07-09T10:42:45;39.50;24.80
65072;DHT22;51663;52.310;17.016;2023-07-09T10:45:56;39.90;23.80
65072;DHT22;51663;52.310;17.016;2023-07-09T10:49:00;40.20;24.00
65072;DHT22;51663;52.310;17.016;2023-07-09T10:52:30;40.60;23.60
65072;DHT22;51663;52.310;17.016;2023-07-09T10:55:50;40.60;23.10
65072;DHT22;51663;52.310;17.016;2023-07-09T10:59:20;40.00;23.30
65072;DHT22;51663;52.310;17.016;2023-07-09T11:02:25;39.30;23.70
65072;DHT22;51663;52.310;17.016;2023-07-09T11:05:28;39.60;23.40
65072;DHT22;51663;52.310;17.016;2023-07-09T11:08:39;39.20;23.60
65072;DHT22;51663;52.310;17.016;2023-07-09T11:11:47;39.40;24.40
65072;DHT22;51663;52.310;17.016;2023-07-09T11:15:03;39.80;22.60
65072;DHT22;51663;52.310;17.016;2023-07-09T11:18:10;40.10;22.60
65072;DHT22;51663;52.310;17.016;2023-07-09T11:21:16;40.50;22.80
65072;DHT22;51663;52.310;17.016;2023-07-09T11:24:35;40.70;22.50
65072;DHT22;51663;52.310;17.016;2023-07-09T11:28:04;40.80;22.60
65072;DHT22;51663;52.310;17.016;2023-07-09T11:31:08;39.40;23.20
65072;DHT22;51663;52.310;17.016;2023-07-09T11:34:18;38.70;23.30
65072;DHT22;51663;52.310;17.016;2023-07-09T11:37:25;38.80;23.80
65072;DHT22;51663;52.310;17.016;2023-07-09T11:40:28;38.90;23.70
65072;DHT22;51663;52.310;17.016;2023-07-09T11:43:35;39.50;23.80
65072;DHT22;51663;52.310;17.016;2023-07-09T11:50:23;40.40;23.10
65072;DHT22;51663;52.310;17.016;2023-07-09T11:53:38;40.40;22.70
65072;DHT22;51663;52.310;17.016;2023-07-09T11:56:56;39.80;23.10
65072;DHT22;51663;52.310;17.016;2023-07-09T11:59:59;39.40;23.30
65072;DHT22;51663;52.310;17.016;2023-07-09T12:03:05;39.90;23.40
65072;DHT22;51663;52.310;17.016;2023-07-09T12:06:23;39.40;23.30
65072;DHT22;51663;52.310;17.016;2023-07-09T12:09:32;40.10;22.80
65072;DHT22;51663;52.310;17.016;2023-07-09T12:12:34;39.90;22.50
65072;DHT22;51663;52.310;17.016;2023-07-09T12:15:39;39.70;22.90
65072;DHT22;51663;52.310;17.016;2023-07-09T12:18:41;40.20;22.10
65072;DHT22;51663;52.310;17.016;2023-07-09T12:21:46;40.50;22.00
65072;DHT22;51663;52.310;17.016;2023-07-09T12:24:50;39.50;22.90
65072;DHT22;51663;52.310;17.016;2023-07-09T12:27:54;39.00;23.50
65072;DHT22;51663;52.310;17.016;2023-07-09T12:30:56;39.70;22.50
65072;DHT22;51663;52.310;17.016;2023-07-09T12:33:59;40.10;22.90
65072;DHT22;51663;52.310;17.016;2023-07-09T12:37:01;40.80;21.70
65072;DHT22;51663;52.310;17.016;2023-07-09T12:40:04;41.10;22.10
65072;DHT22;51663;52.310;17.016;2023-07-09T12:43:13;41.00;22.10
65072;DHT22;51663;52.310;17.016;2023-07-09T12:46:16;41.30;22.20
65072;DHT22;51663;52.310;17.016;2023-07-09T12:49:24;40.20;22.60
65072;DHT22;51663;52.310;17.016;2023-07-09T12:52:26;39.40;22.80
65072;DHT22;51663;52.310;17.016;2023-07-09T12:55:30;38.70;24.00
65072;DHT22;51663;52.310;17.016;2023-07-09T12:58:39;38.90;23.60
65072;DHT22;51663;52.310;17.016;2023-07-09T13:01:55;39.20;23.20
65072;DHT22;51663;52.310;17.016;2023-07-09T13:05:05;40.00;22.50
65072;DHT22;51663;52.310;17.016;2023-07-09T13:08:14;40.80;21.90
65072;DHT22;51663;52.310;17.016;2023-07-09T13:11:17;41.00;21.70
65072;DHT22;51663;52.310;17.016;2023-07-09T13:14:26;41.20;21.80
65072;DHT22;51663;52.310;17.016;2023-07-09T13:17:32;41.00;22.20
65072;DHT22;51663;52.310;17.016;2023-07-09T13:20:38;41.00;22.20
65072;DHT22;51663;52.310;17.016;2023-07-09T13:23:41;40.10;22.80
65072;DHT22;51663;52.310;17.016;2023-07-09T13:26:44;39.60;24.00
65072;DHT22;51663;52.310;17.016;2023-07-09T13:29:49;38.70;23.70
65072;DHT22;51663;52.310;17.016;2023-07-09T13:32:51;39.50;22.90
65072;DHT22;51663;52.310;17.016;2023-07-09T13:35:53;40.00;23.00
65072;DHT22;51663;52.310;17.016;2023-07-09T13:38:56;40.40;22.70
65072;DHT22;51663;52.310;17.016;2023-07-09T13:41:58;40.50;22.70
65072;DHT22;51663;52.310;17.016;2023-07-09T13:45:02;40.60;23.10
65072;DHT22;51663;52.310;17.016;2023-07-09T13:48:09;40.40;22.80
65072;DHT22;51663;52.310;17.016;2023-07-09T13:51:22;40.00;23.40
65072;DHT22;51663;52.310;17.016;2023-07-09T13:54:28;39.50;23.40
65072;DHT22;51663;52.310;17.016;2023-07-09T13:57:37;39.70;23.10
65072;DHT22;51663;52.310;17.016;2023-07-09T14:00:41;39.80;22.80
65072;DHT22;51663;52.310;17.016;2023-07-09T14:03:43;40.70;22.50
65072;DHT22;51663;52.310;17.016;2023-07-09T14:06:46;41.30;22.10
65072;DHT22;51663;52.310;17.016;2023-07-09T14:09:48;41.00;22.10
65072;DHT22;51663;52.310;17.016;2023-07-09T14:12:50;40.40;23.40
65072;DHT22;51663;52.310;17.016;2023-07-09T14:15:54;40.60;22.60
65072;DHT22;51663;52.310;17.016;2023-07-09T14:18:56;40.10;23.10
65072;DHT22;51663;52.310;17.016;2023-07-09T14:21:59;40.10;22.90
65072;DHT22;51663;52.310;17.016;2023-07-09T14:25:02;39.40;23.10
65072;DHT22;51663;52.310;17.016;2023-07-09T14:28:12;39.00;23.60
65072;DHT22;51663;52.310;17.016;2023-07-09T14:31:28;39.20;23.80
65072;DHT22;51663;52.310;17.016;2023-07-09T14:34:33;40.40;22.50
65072;DHT22;51663;52.310;17.016;2023-07-09T14:37:35;41.00;22.30
65072;DHT22;51663;52.310;17.016;2023-07-09T14:40:37;41.30;21.60
65072;DHT22;51663;52.310;17.016;2023-07-09T14:43:40;41.30;21.80
65072;DHT22;51663;52.310;17.016;2023-07-09T14:46:42;41.40;21.80
65072;DHT22;51663;52.310;17.016;2023-07-09T14:49:44;41.70;21.50
65072;DHT22;51663;52.310;17.016;2023-07-09T14:52:47;41.40;22.00
65072;DHT22;51663;52.310;17.016;2023-07-09T14:55:50;40.70;22.40
65072;DHT22;51663;52.310;17.016;2023-07-09T14:58:52;39.70;23.10
65072;DHT22;51663;52.310;17.016;2023-07-09T15:01:55;40.20;23.60
65072;DHT22;51663;52.310;17.016;2023-07-09T15:04:57;40.80;22.30
65072;DHT22;51663;52.310;17.016;2023-07-09T15:08:03;41.30;21.90
65072;DHT22;51663;52.310;17.016;2023-07-09T15:11:09;40.70;22.30
65072;DHT22;51663;52.310;17.016;2023-07-09T15:14:12;40.80;22.30
65072;DHT22;51663;52.310;17.016;2023-07-09T15:17:14;41.20;21.90
65072;DHT22;51663;52.310;17.016;2023-07-09T15:20:20;41.50;21.60
65072;DHT22;51663;52.310;17.016;2023-07-09T15:23:24;41.40;21.90
65072;DHT22;51663;52.310;17.016;2023-07-09T15:26:27;41.70;21.80
65072;DHT22;51663;52.310;17.016;2023-07-09T15:29:30;41.50;21.60
65072;DHT22;51663;52.310;17.016;2023-07-09T15:32:32;41.60;21.70
65072;DHT22;51663;52.310;17.016;2023-07-09T15:35:35;41.30;21.80
65072;DHT22;51663;52.310;17.016;2023-07-09T15:38:38;40.80;22.20
65072;DHT22;51663;52.310;17.016;2023-07-09T15:41:44;41.10;21.90
65072;DHT22;51663;52.310;17.016;2023-07-09T15:44:46;41.00;22.00
65072;DHT22;51663;52.310;17.016;2023-07-09T15:47:50;41.30;21.60
65072;DHT22;51663;52.310;17.016;2023-07-09T15:50:53;41.70;21.00
65072;DHT22;51663;52.310;17.016;2023-07-09T15:53:55;42.00;21.40
65072;DHT22;51663;52.310;17.016;2023-07-09T15:56:58;42.20;21.10
65072;DHT22;51663;52.310;17.016;2023-07-09T16:00:00;42.20;21.10
65072;DHT22;51663;52.310;17.016;2023-07-09T16:03:02;41.90;21.60
65072;DHT22;51663;52.310;17.016;2023-07-09T16:06:21;41.10;21.60
65072;DHT22;51663;52.310;17.016;2023-07-09T16:09:24;41.00;22.20
65072;DHT22;51663;52.310;17.016;2023-07-09T16:12:26;41.20;22.40
65072;DHT22;51663;52.310;17.016;2023-07-09T16:15:31;41.20;21.80
65072;DHT22;51663;52.310;17.016;2023-07-09T16:18:33;41.60;21.80
65072;DHT22;51663;52.310;17.016;2023-07-09T16:21:35;41.70;21.80
65072;DHT22;51663;52.310;17.016;2023-07-09T16:24:37;42.00;21.20
65072;DHT22;51663;52.310;17.016;2023-07-09T16:27:41;41.90;21.50
65072;DHT22;51663;52.310;17.016;2023-07-09T16:30:44;41.80;21.90
65072;DHT22;51663;52.310;17.016;2023-07-09T16:33:46;41.70;21.60
65072;DHT22;51663;52.310;17.016;2023-07-09T16:36:48;41.80;21.30
65072;DHT22;51663;52.310;17.016;2023-07-09T16:39:51;41.10;21.90
65072;DHT22;51663;52.310;17.016;2023-07-09T16:42:53;40.60;22.00
65072;DHT22;51663;52.310;17.016;2023-07-09T16:45:55;41.10;21.90
65072;DHT22;51663;52.310;17.016;2023-07-09T16:48:58;41.50;21.90
65072;DHT22;51663;52.310;17.016;2023-07-09T16:52:01;41.50;21.60
65072;DHT22;51663;52.310;17.016;2023-07-09T16:55:06;41.40;21.90
65072;DHT22;51663;52.310;17.016;2023-07-09T16:58:32;41.40;21.70
65072;DHT22;51663;52.310;17.016;2023-07-09T17:01:34;41.50;21.40
65072;DHT22;51663;52.310;17.016;2023-07-09T17:04:37;41.60;21.30
65072;DHT22;51663;52.310;17.016;2023-07-09T17:07:39;41.30;21.60
65072;DHT22;51663;52.310;17.016;2023-07-09T17:10:42;41.20;21.50
65072;DHT22;51663;52.310;17.016;2023-07-09T17:13:45;41.10;21.50
65072;DHT22;51663;52.310;17.016;2023-07-09T17:16:49;41.10;21.50
65072;DHT22;51663;52.310;17.016;2023-07-09T17:19:53;40.60;21.60
65072;DHT22;51663;52.310;17.016;2023-07-09T17:22:58;40.20;21.50
65072;DHT22;51663;52.310;17.016;2023-07-09T17:26:01;40.00;22.10
65072;DHT22;51663;52.310;17.016;2023-07-09T17:29:09;40.40;21.80
65072;DHT22;51663;52.310;17.016;2023-07-09T17:32:12;39.90;21.80
65072;DHT22;51663;52.310;17.016;2023-07-09T17:35:16;40.00;21.90
65072;DHT22;51663;52.310;17.016;2023-07-09T17:38:21;40.50;21.60
65072;DHT22;51663;52.310;17.016;2023-07-09T17:41:24;40.70;21.60
65072;DHT22;51663;52.310;17.016;2023-07-09T17:44:27;40.50;21.30
65072;DHT22;51663;52.310;17.016;2023-07-09T17:47:29;40.40;21.50
65072;DHT22;51663;52.310;17.016;2023-07-09T17:50:31;40.40;21.60
65072;DHT22;51663;52.310;17.016;2023-07-09T17:53:35;40.50;21.50
65072;DHT22;51663;52.310;17.016;2023-07-09T17:56:38;40.30;21.70
65072;DHT22;51663;52.310;17.016;2023-07-09T17:59:41;40.60;21.90
65072;DHT22;51663;52.310;17.016;2023-07-09T18:02:45;40.70;21.60
65072;DHT22;51663;52.310;17.016;2023-07-09T18:05:49;40.90;21.50
65072;DHT22;51663;52.310;17.016;2023-07-09T18:08:51;41.00;21.50
65072;DHT22;51663;52.310;17.016;2023-07-09T18:11:53;41.10;21.50
65072;DHT22;51663;52.310;17.016;2023-07-09T18:14:57;41.00;21.50
65072;DHT22;51663;52.310;17.016;2023-07-09T18:18:00;41.20;21.60
65072;DHT22;51663;52.310;17.016;2023-07-09T18:21:03;41.30;21.30
65072;DHT22;51663;52.310;17.016;2023-07-09T18:24:05;40.90;21.70
65072;DHT22;51663;52.310;17.016;2023-07-09T18:27:13;40.80;21.80
65072;DHT22;51663;52.310;17.016;2023-07-09T18:30:18;40.60;22.20
65072;DHT22;51663;52.310;17.016;2023-07-09T18:33:20;40.70;22.00
65072;DHT22;51663;52.310;17.016;2023-07-09T18:36:23;40.60;22.20
65072;DHT22;51663;52.310;17.016;2023-07-09T18:39:25;40.50;22.40
65072;DHT22;51663;52.310;17.016;2023-07-09T18:42:30;40.50;22.40
65072;DHT22;51663;52.310;17.016;2023-07-09T18:45:32;40.60;22.30
65072;DHT22;51663;52.310;17.016;2023-07-09T18:48:35;40.70;22.30
65072;DHT22;51663;52.310;17.016;2023-07-09T18:51:38;40.70;22.30
65072;DHT22;51663;52.310;17.016;2023-07-09T18:54:41;40.60;22.40
65072;DHT22;51663;52.310;17.016;2023-07-09T18:57:43;40.70;22.40
65072;DHT22;51663;52.310;17.016;2023-07-09T19:00:46;40.70;22.30
65072;DHT22;51663;52.310;17.016;2023-07-09T19:03:48;40.80;22.50
65072;DHT22;51663;52.310;17.016;2023-07-09T19:06:52;40.80;23.20
65072;DHT22;51663;52.310;17.016;2023-07-09T19:09:55;40.70;24.30
65072;DHT22;51663;52.310;17.016;2023-07-09T19:13:07;40.60;24.00
65072;DHT22;51663;52.310;17.016;2023-07-09T19:16:22;40.40;24.30
65072;DHT22;51663;52.310;17.016;2023-07-09T19:19:27;40.30;24.60
65072;DHT22;51663;52.310;17.016;2023-07-09T19:22:29;40.00;24.60
65072;DHT22;51663;52.310;17.016;2023-07-09T19:25:31;39.80;25.30
65072;DHT22;51663;52.310;17.016;2023-07-09T19:28:33;39.40;25.30
65072;DHT22;51663;52.310;17.016;2023-07-09T19:31:37;39.40;25.00
65072;DHT22;51663;52.310;17.016;2023-07-09T19:34:40;39.30;25.20
65072;DHT22;51663;52.310;17.016;2023-07-09T19:37:43;39.10;25.60
65072;DHT22;51663;52.310;17.016;2023-07-09T19:40:45;38.80;25.30
65072;DHT22;51663;52.310;17.016;2023-07-09T19:43:48;38.80;25.70